Startpagina
METAR-TAF:

METAR-TAF

Vliegvelden :

Deauville, Frankrijk

breedte: 49-21-55N, lengte: 000-09-16E, hoogte: 146 m

Actueel weer

Dit bericht is 36 minuten geleden gemaakt, om 15:30 UTC
Wind 5 kt uit het westzuidwesten, variërend tussen het zuidzuidwesten en het westen
Temperatuur 21°C
Vochtigheid 73%
Druk 1013 hPa
Zicht 10 km of meer
Weinig wolken op 3100 ft
Gebroken wolken op 4400 ft
Geheel bewolkt op 5000 ft

METAR: LFRG 261530Z AUTO 24005KT 210V270 9999 FEW031 BKN044 OVC050 21/16 Q1013 NOSIG

Tijdstip: 18:06 (16:06 UTC)

Verwachting

Dit bericht is 2 uur en het 6 minuten geleden gemaakt, om 14:00 UTC
Verwachting geldig van 26 om 15 UTC tot 26 om 24 UTC
Wind 10 kt uit het westnoordwesten
Zicht 10 km of meer
Gebroken wolken op 3000 ft
Kans 30% :
Tijdelijke
van 26 om 21 UTC tot 26 om 24 UTC
Zicht: 4000 m
nevel

TAF: LFRG 261400Z 2615/2624 29010KT 9999 BKN030 PROB30 TEMPO 2621/2624 4000 BR

Waarnemingen en weersverwachtingen van meer dan 4000 vliegvelden (METAR en TAF).

De beschikbare stations zijn de gele en rode punten op de kaart.

Ga met uw muis naar het station om de naam te zien.

Klik dan om waarnemingen en weersverwachtingen te zien.

kaart wijzigen: klik op de groene knoppen met een zwart kruis om in te zoomen, op de groene knop met een streepje om uit te zoomen of op de groene pijlen voor aangrenzende kaarten.


METAR-TAF: